Country
Station

 

Weather  for  Rundu  -  Namibia    Namibia

  
35 °C (95 °F)
    
 
 

Current METAR for Rundu is :

FYRU 161200Z AUTO 07009KT //// // ////// 35/M00 Q1019

 

This is a report for Rundu - Namibia.
 
The report was made one hour and 8 minutes ago, at 12:00 UTC .
The wind was blowing at a speed of 4.6 meters per second (10.4 miles per hour) from east/northeast (070°).
 
The temperature was 35 °C (95 °F)
The atmospheric pressure was 1019 hPa (30.09 inHg).

 
 
 
 

Country :   A   B   C   D   E   F   G   H   I   J   K   L   M   N   O   P   Q   R   S   T   U   V   W   Y   Z

 

Site Info  |  Disclaimer  |  Credits  |  Privacy
Contact us  |  Add to favorites
© 2013-2019 METARs - All rights reserved